• Join FlightAware (Why Join?)
  • Login
  • US Flag 
02:14PM EDT


 

Airport Tracker/Info


-or-


 

Live Flight TrackerFlight Track Log ✈ EJA727 ✈ 28-Jun-2013 ✈ KASE - KDAL

Flight Track Log - Related Links

Times and Time Zones

All times are in EDT time to prevent confusion due to time zone crossing. See the EJA727 flight status page for this flight to view local times or setup timezone preferences in your user account.

Time Position Orientation Groundspeed Altitude Reporting Facility
EDT Latitude Longitude Course Direction KTS MPH feet Rate Location/Type
11:23AM 39.2847 -106.9264 284° West 247 284 11,300  Level Denver Center
11:24AM 39.3022 -107.0178 284° West 255 293 14,300 2,820 Climbing Denver Center
11:25AM 39.2661 -107.1067 242° Southwest 318 366 17,200 2,460 Climbing Denver Center
11:26AM 39.1683 -107.1053 179° South 353 406 19,500 2,400 Climbing Denver Center
11:27AM 39.0544 -107.0953 176° South 378 435 22,200 2,340 Climbing Denver Center
11:28AM 38.9281 -107.0825 176° South 405 466 24,400 840 Climbing Denver Center
11:29AM 38.8047 -107.0728 176° South 436 502 24,000 -240 Descending Denver Center
11:30AM 38.6775 -107.0619 176° South 455 524 24,000 840 Level Denver Center
11:31AM 38.5436 -107.0508 176° South 479 551 25,800 1,800 Climbing Denver Center
11:32AM 38.4214 -107.0056 164° South 472 543 27,800 2,160 Climbing Denver Center
11:33AM 38.3122 -106.8658 135° Southeast 464 534 30,400 2,160 Climbing Denver Center
11:34AM 38.2456 -106.7197 120° Southeast 463 533 32,300 1,440 Climbing Denver Center
11:35AM 38.1814 -106.5844 121° Southeast 466 536 33,400 1,260 Climbing Denver Center
11:37AM 38.1133 -106.4417 121° Southeast 469 540 35,000 1,560 Climbing Denver Center
11:38AM 38.0367 -106.2725 120° Southeast 473 544 36,700 1,500 Climbing Denver Center
11:39AM 37.9728 -106.1375 121° Southeast 468 539 38,200 1,080 Climbing Denver Center
11:40AM 37.9075 -106.0019 121° Southeast 470 541 39,000 360 Climbing Denver Center
11:41AM 37.8294 -105.8389 121° Southeast 482 555 39,000  Level Denver Center
11:42AM 37.7625 -105.6953 120° Southeast 492 566 39,000  Level Denver Center
11:43AM 37.6694 -105.5053 122° Southeast 498 573 39,000  Level Denver Center
11:44AM 37.5911 -105.3408 121° Southeast 492 566 39,000  Level Denver Center
11:45AM 37.5244 -105.2008 121° Southeast 489 563 39,000  Level Denver Center
11:46AM 37.4456 -105.0386 121° Southeast 488 562 39,000  Level Denver Center
11:47AM 37.3783 -104.8992 121° Southeast 490 564 39,000  Level Denver Center
11:48AM 37.2989 -104.7386 122° Southeast 486 559 39,000  Level Denver Center
11:49AM 37.2308 -104.5992 121° Southeast 489 563 39,000  Level Denver Center
11:50AM 37.1492 -104.4367 122° Southeast 494 568 39,000  Level Denver Center
11:51AM 37.0819 -104.2986 121° Southeast 490 564 39,000  Level Denver Center
11:52AM 37.0003 -104.1372 122° Southeast 492 566 39,000  Level Denver Center
11:53AM 36.9314 -103.9983 122° Southeast 494 568 39,000  Level Denver Center
11:54AM 36.8522 -103.8356 121° Southeast 494 568 39,000  Level Albuquerque Center
11:55AM 36.7719 -103.6722 121° Southeast 496 571 39,000  Level Albuquerque Center
11:56AM 36.7031 -103.5339 122° Southeast 494 568 39,000  Level Albuquerque Center
11:58AM 36.6197 -103.3647 122° Southeast 497 572 39,000  Level Albuquerque Center
11:59AM 36.5486 -103.2178 121° Southeast 493 567 39,000  Level Albuquerque Center
12:00PM 36.4756 -103.0719 122° Southeast 492 566 39,000  Level Albuquerque Center
12:01PM 36.4025 -102.9264 122° Southeast 491 565 39,000  Level Albuquerque Center
12:02PM 36.3261 -102.7722 122° Southeast 490 564 39,000  Level Albuquerque Center
12:03PM 36.2536 -102.6289 122° Southeast 491 565 39,000  Level Albuquerque Center
12:04PM 36.1811 -102.4853 122° Southeast 491 565 39,000  Level Albuquerque Center
12:05PM 36.1092 -102.3419 122° Southeast 491 565 39,000  Level Albuquerque Center
12:06PM 36.0367 -102.1994 122° Southeast 489 563 39,000  Level Albuquerque Center
12:07PM 35.9492 -102.0278 122° Southeast 491 565 39,000  Level Albuquerque Center
12:08PM 35.8753 -101.8850 123° Southeast 493 567 39,000  Level Albuquerque Center
12:09PM 35.8028 -101.7414 122° Southeast 492 566 39,000  Level Albuquerque Center
12:10PM 35.7292 -101.6000 123° Southeast 489 563 39,000  Level Albuquerque Center
12:11PM 35.6556 -101.4581 123° Southeast 489 563 39,000  Level Albuquerque Center
12:12PM 35.5819 -101.3156 122° Southeast 489 563 39,000  Level Albuquerque Center
12:13PM 35.5072 -101.1750 123° Southeast 489 563 39,000  Level Albuquerque Center
12:14PM 35.4336 -101.0356 123° Southeast 487 560 39,000  Level Albuquerque Center
12:15PM 35.3450 -100.8697 123° Southeast 484 557 39,000  Level Albuquerque Center
12:16PM 35.2717 -100.7306 123° Southeast 485 558 39,000  Level Albuquerque Center
12:17PM 35.1978 -100.5942 124° Southeast 487 560 39,000  Level Albuquerque Center
12:18PM 35.1239 -100.4550 123° Southeast 482 555 39,000  Level Albuquerque Center
12:19PM 35.0508 -100.3197 123° Southeast 486 559 39,000  Level Albuquerque Center
12:20PM 34.9778 -100.1844 123° Southeast 481 554 39,000  Level Albuquerque Center
12:21PM 34.8906 -100.0231 123° Southeast 477 549 39,000  Level Albuquerque Center
12:22PM 34.8169 -99.8875 123° Southeast 479 551 39,000  Level Albuquerque Center
12:23PM 34.7436 -99.7539 124° Southeast 477 549 39,000  Level Albuquerque Center
12:24PM 34.6706 -99.6200 124° Southeast 477 549 39,000  Level Albuquerque Center
12:25PM 34.5967 -99.4864 124° Southeast 476 548 39,000 -540 Level Albuquerque Center
12:26PM 34.5222 -99.3528 124° Southeast 477 549 37,900 -1,620 Descending Albuquerque Center
12:28PM 34.4347 -99.1939 124° Southeast 474 545 35,700 -2,040 Descending Albuquerque Center
12:29PM 34.3603 -99.0622 124° Southeast 473 544 33,800 -1,920 Descending Albuquerque Center
12:30PM 34.2708 -98.9114 126° Southeast 480 552 31,700 -1,980 Descending Fort Worth Center
12:31PM 34.1931 -98.7694 123° Southeast 492 566 29,700 -1,980 Descending Fort Worth Center
12:32PM 34.1172 -98.6353 124° Southeast 497 572 27,800 -1,980 Descending Fort Worth Center
12:33PM 34.0392 -98.4961 124° Southeast 502 578 25,800 -1,920 Descending Fort Worth Center
12:34PM 33.9631 -98.3575 123° Southeast 502 578 24,000 -960 Descending Fort Worth Center
12:35PM 33.8847 -98.2167 124° Southeast 502 578 23,900 -1,020 Descending Fort Worth Center
12:36PM 33.8167 -98.1008 125° Southeast 489 563 22,000 -2,160 Descending Fort Worth Center
12:37PM 33.7381 -97.9656 125° Southeast 460 529 19,600 -2,220 Descending Fort Worth Center
12:38PM 33.6697 -97.8453 124° Southeast 449 517 17,600 -2,040 Descending Fort Worth Center
12:39PM 33.6031 -97.7303 125° Southeast 431 496 15,600 -2,040 Descending Fort Worth Center
12:40PM 33.5386 -97.6203 125° Southeast 412 474 13,600 -1,800 Descending Fort Worth Center
12:41PM 33.4844 -97.5281 125° Southeast 358 412 12,000 -1,500 Descending Fort Worth Center
12:42PM 33.4325 -97.4433 126° Southeast 325 374 10,600 -1,560 Descending Fort Worth Center
12:43PM 33.3928 -97.3489 117° Southeast 310 357 8,900 -1,560 Descending Fort Worth Center
12:44PM 33.3803 -97.2542 99° East 292 336 7,500 -1,560 Descending Fort Worth Center
12:44PM 33.3667 -97.1667 101° East 301 346 6,200 -1,440 Descending Dallas / Fort Worth TRACON
12:45PM 33.3667 -97.0667 90° East 299 344 5,000 -660 Descending Dallas / Fort Worth TRACON
12:46PM 33.3500 -96.9667 101° East 294 338 4,900 -540 Descending Dallas / Fort Worth TRACON
12:47PM 33.3500 -96.8833 90° East 291 335 4,000 -480 Descending Dallas / Fort Worth TRACON
12:48PM 33.3167 -96.7833 112° Southeast 295 339 4,000  Level Dallas / Fort Worth TRACON
12:49PM 33.2500 -96.7500 157° South 292 336 4,000  Level Dallas / Fort Worth TRACON
12:50PM 33.1667 -96.7667 190° South 290 334 4,000  Level Dallas / Fort Worth TRACON
12:51PM 33.1000 -96.8000 203° Southwest 275 316 4,000 -360 Level Dallas / Fort Worth TRACON
12:52PM 33.0333 -96.8333 203° Southwest 220 253 3,300 -540 Descending Dallas / Fort Worth TRACON
12:53PM 32.9833 -96.8667 209° Southwest 190 219 3,000 -300 Descending Dallas / Fort Worth TRACON
12:54PM 32.9500 -96.8833 203° Southwest 169 194 2,700 -660 Descending Dallas / Fort Worth TRACON
12:55PM 32.9000 -96.9000 196° South 149 171 1,800 -1,020 Descending Dallas / Fort Worth TRACON